createdAt,value
2022-09-10T00:00:46.344Z,1.90
2022-09-10T00:03:15.761Z,2.27
2022-09-10T00:05:46.263Z,2.43
2022-09-10T00:08:14.269Z,2.37
2022-09-10T00:10:42.967Z,2.07
2022-09-10T00:13:11.164Z,2.20
2022-09-10T00:15:42.925Z,2.20
2022-09-10T00:18:11.034Z,2.20
2022-09-10T00:20:50.429Z,2.10
2022-09-10T00:23:24.117Z,2.40
2022-09-10T00:25:54.969Z,2.20
2022-09-10T00:28:24.900Z,2.50
2022-09-10T00:30:56.605Z,2.10
2022-09-10T00:33:26.972Z,2.23
2022-09-10T00:36:01.673Z,2.57
2022-09-10T00:38:32.658Z,3.30
2022-09-10T00:41:04.669Z,2.70
2022-09-10T00:43:48.145Z,2.20
2022-09-10T00:46:17.712Z,2.70
2022-09-10T00:48:45.964Z,2.70
2022-09-10T00:51:15.834Z,2.80
2022-09-10T00:53:44.090Z,2.40
2022-09-10T00:56:11.643Z,2.83
2022-09-10T00:58:39.322Z,2.90
2022-09-10T01:01:07.548Z,2.33
2022-09-10T01:03:35.587Z,2.73
2022-09-10T01:06:04.241Z,2.23
2022-09-10T01:08:33.182Z,2.50
2022-09-10T01:11:11.166Z,2.80
2022-09-10T01:13:47.333Z,2.70
2022-09-10T01:16:20.511Z,2.73
2022-09-10T01:18:54.957Z,2.80
2022-09-10T01:21:24.886Z,2.90
2022-09-10T01:24:07.371Z,2.60
2022-09-10T01:26:54.994Z,2.07
2022-09-10T01:29:29.230Z,3.13
2022-09-10T01:32:01.326Z,2.53
2022-09-10T01:34:31.032Z,2.90
2022-09-10T01:37:01.382Z,3.20
2022-09-10T01:39:29.198Z,3.03
2022-09-10T01:41:56.750Z,3.80
2022-09-10T01:44:43.900Z,3.10
2022-09-10T01:47:17.675Z,2.90
2022-09-10T01:49:58.092Z,2.60
2022-09-10T01:52:33.574Z,2.63
2022-09-10T01:55:07.310Z,2.97
2022-09-10T01:57:41.611Z,2.50
2022-09-10T02:00:12.267Z,2.27
2022-09-10T02:02:43.372Z,2.80
2022-09-10T02:05:11.965Z,2.20
2022-09-10T02:07:40.337Z,2.83
2022-09-10T02:10:11.022Z,2.60
2022-09-10T02:12:39.960Z,2.53
2022-09-10T02:15:11.441Z,2.40
2022-09-10T02:17:39.961Z,2.20
2022-09-10T02:20:10.721Z,3.07
2022-09-10T02:22:40.713Z,3.10
2022-09-10T02:25:10.209Z,3.13
2022-09-10T02:27:38.284Z,2.63
2022-09-10T02:30:07.260Z,2.80
2022-09-10T02:32:36.204Z,3.13
2022-09-10T02:35:04.009Z,3.70
2022-09-10T02:37:31.635Z,4.00
2022-09-10T02:39:59.357Z,3.20
2022-09-10T02:42:26.954Z,3.43
2022-09-10T02:44:54.622Z,3.70
2022-09-10T02:47:22.154Z,3.47
2022-09-10T02:49:51.028Z,3.43
2022-09-10T02:52:18.595Z,3.80
2022-09-10T02:54:46.148Z,3.87
2022-09-10T02:57:13.794Z,3.87
2022-09-10T02:59:41.311Z,4.30
2022-09-10T03:02:09.691Z,4.07
2022-09-10T03:04:37.452Z,3.47
2022-09-10T03:07:06.411Z,4.10
2022-09-10T03:09:35.673Z,3.47
2022-09-10T03:12:03.463Z,4.03
2022-09-10T03:14:31.104Z,3.87
2022-09-10T03:16:58.595Z,3.30
2022-09-10T03:19:26.622Z,3.67
2022-09-10T03:21:54.203Z,3.70
2022-09-10T03:24:23.299Z,4.00
2022-09-10T03:26:50.892Z,4.00
2022-09-10T03:29:18.518Z,3.57
2022-09-10T03:31:46.606Z,3.83
2022-09-10T03:34:14.407Z,3.40
2022-09-10T03:36:41.904Z,3.60
2022-09-10T03:39:09.613Z,3.73
2022-09-10T03:41:38.550Z,3.27
2022-09-10T03:44:06.606Z,3.37
2022-09-10T03:46:34.393Z,3.17
2022-09-10T03:49:02.621Z,3.53
2022-09-10T03:51:31.040Z,3.30
2022-09-10T03:53:59.829Z,4.27
2022-09-10T03:56:27.427Z,3.53
2022-09-10T03:58:56.843Z,2.90
2022-09-10T04:01:24.700Z,3.50
2022-09-10T04:03:55.255Z,3.17
2022-09-10T04:06:22.895Z,3.57
2022-09-10T04:08:51.892Z,3.63
2022-09-10T04:11:19.521Z,3.73
2022-09-10T04:13:48.979Z,4.20
2022-09-10T04:16:18.440Z,4.07
2022-09-10T04:18:46.027Z,4.37
2022-09-10T04:21:13.705Z,4.30
2022-09-10T04:23:42.076Z,4.23
2022-09-10T04:26:14.531Z,4.17
2022-09-10T04:28:42.102Z,4.53
2022-09-10T04:31:10.088Z,4.20
2022-09-10T04:33:39.482Z,4.47
2022-09-10T04:36:08.116Z,4.63
2022-09-10T04:38:40.092Z,4.17
2022-09-10T04:41:07.836Z,5.10
2022-09-10T04:43:35.832Z,4.87
2022-09-10T04:46:03.604Z,4.63
2022-09-10T04:48:31.191Z,4.53
2022-09-10T04:51:15.698Z,5.07
2022-09-10T04:53:44.248Z,4.70
2022-09-10T04:56:12.128Z,4.67
2022-09-10T04:58:39.875Z,3.93
2022-09-10T05:01:08.103Z,4.00
2022-09-10T05:03:35.795Z,4.43
2022-09-10T05:06:05.121Z,3.73
2022-09-10T05:08:32.863Z,3.30
2022-09-10T05:11:02.651Z,3.10
2022-09-10T05:13:31.554Z,3.20
2022-09-10T05:15:59.673Z,3.10
2022-09-10T05:18:27.346Z,3.10
2022-09-10T05:20:54.871Z,3.03
2022-09-10T05:23:24.134Z,2.90
2022-09-10T05:25:51.727Z,2.60
2022-09-10T05:28:20.807Z,2.40
2022-09-10T05:30:51.502Z,2.83
2022-09-10T05:33:19.582Z,2.60
2022-09-10T05:35:49.301Z,2.47
2022-09-10T05:38:16.844Z,2.50
2022-09-10T05:40:45.769Z,2.90
2022-09-10T05:43:13.309Z,2.33
2022-09-10T05:45:40.870Z,2.43
2022-09-10T05:48:08.553Z,2.50
2022-09-10T05:50:38.423Z,2.03
2022-09-10T05:53:06.285Z,2.20
2022-09-10T05:55:33.910Z,1.97
2022-09-10T05:58:03.220Z,2.80
2022-09-10T06:00:31.165Z,1.67
2022-09-10T06:02:58.965Z,2.10
2022-09-10T06:05:26.609Z,2.10
2022-09-10T06:07:54.143Z,2.30
2022-09-10T06:10:21.691Z,2.00
2022-09-10T06:12:51.920Z,1.80
2022-09-10T06:15:21.439Z,1.93
2022-09-10T06:17:49.931Z,1.60
2022-09-10T06:20:17.488Z,1.80
2022-09-10T06:22:45.041Z,2.00
2022-09-10T06:25:12.523Z,1.73
2022-09-10T06:27:40.756Z,1.77
2022-09-10T06:30:09.258Z,1.70
2022-09-10T06:32:39.161Z,2.00
2022-09-10T06:35:07.499Z,1.43
2022-09-10T06:37:35.132Z,1.80
2022-09-10T06:40:03.201Z,1.57
2022-09-10T06:42:32.131Z,2.10
2022-09-10T06:45:00.079Z,2.03
2022-09-10T06:50:16.577Z,1.80
2022-09-10T06:52:44.122Z,1.60
2022-09-10T06:55:11.778Z,2.07
2022-09-10T06:57:40.018Z,1.73
2022-09-10T07:00:09.027Z,1.63
2022-09-10T07:02:36.560Z,1.80
2022-09-10T07:05:04.437Z,1.60
2022-09-10T07:07:33.402Z,1.60
2022-09-10T07:10:01.454Z,1.70
2022-09-10T07:12:28.970Z,1.73
2022-09-10T07:14:56.506Z,1.73
2022-09-10T07:17:24.070Z,1.60
2022-09-10T07:19:51.674Z,1.67
2022-09-10T07:22:19.256Z,1.70
2022-09-10T07:24:50.282Z,1.87
2022-09-10T07:27:18.241Z,2.27
2022-09-10T07:29:45.830Z,1.77
2022-09-10T07:32:13.768Z,1.80
2022-09-10T07:34:41.481Z,1.80
2022-09-10T07:37:09.051Z,2.10
2022-09-10T07:39:36.893Z,1.93
2022-09-10T07:42:06.389Z,2.00
2022-09-10T07:44:34.014Z,1.80
2022-09-10T07:47:03.328Z,2.13
2022-09-10T07:49:31.551Z,1.63
2022-09-10T07:52:00.254Z,1.93
2022-09-10T07:54:28.439Z,2.27
2022-09-10T07:56:56.042Z,1.87
2022-09-10T07:59:25.113Z,2.67
2022-09-10T08:01:52.731Z,1.93
2022-09-10T08:04:20.274Z,1.80
2022-09-10T08:06:47.960Z,2.03
2022-09-10T08:09:16.218Z,2.40
2022-09-10T08:11:43.750Z,2.50
2022-09-10T08:14:13.216Z,2.10
2022-09-10T08:16:44.472Z,1.83
2022-09-10T08:19:13.764Z,2.10
2022-09-10T08:21:41.369Z,1.80
2022-09-10T08:24:11.529Z,1.97
2022-09-10T08:26:39.069Z,2.47
2022-09-10T08:29:06.848Z,1.87
2022-09-10T08:31:34.712Z,2.30
2022-09-10T08:34:03.687Z,2.03
2022-09-10T08:36:31.844Z,2.10
2022-09-10T08:39:02.271Z,2.00
2022-09-10T08:41:42.336Z,1.80
2022-09-10T08:44:17.680Z,1.90
2022-09-10T08:46:48.330Z,2.00
2022-09-10T08:49:21.401Z,1.90
2022-09-10T08:51:53.489Z,2.40
2022-09-10T08:54:25.294Z,1.47
2022-09-10T08:56:53.439Z,2.30
2022-09-10T08:59:23.110Z,1.97
2022-09-10T09:01:53.116Z,1.93
2022-09-10T09:04:29.805Z,1.93
2022-09-10T09:07:00.287Z,1.90
2022-09-10T09:09:28.002Z,1.80
2022-09-10T09:12:01.031Z,1.90
2022-09-10T09:14:40.074Z,1.50
2022-09-10T09:17:17.701Z,1.70
2022-09-10T09:19:52.260Z,2.00
2022-09-10T09:22:22.103Z,1.57
2022-09-10T09:24:56.044Z,1.60
2022-09-10T09:27:24.257Z,1.40
2022-09-10T09:29:56.032Z,1.87
2022-09-10T09:32:23.919Z,1.67
2022-09-10T09:34:55.765Z,1.70
2022-09-10T09:37:25.945Z,1.67
2022-09-10T09:40:06.405Z,1.50
2022-09-10T09:42:40.893Z,1.60
2022-09-10T09:45:18.379Z,1.90
2022-09-10T09:47:46.773Z,1.30
2022-09-10T09:50:18.514Z,1.53
2022-09-10T09:52:46.606Z,1.43
2022-09-10T09:55:23.156Z,1.37
2022-09-10T09:57:53.621Z,1.60
2022-09-10T10:00:36.583Z,1.57
2022-09-10T10:03:08.343Z,1.53
2022-09-10T10:05:37.352Z,1.27
2022-09-10T10:08:04.860Z,1.50
2022-09-10T10:10:32.594Z,1.53
2022-09-10T10:13:00.120Z,1.50
2022-09-10T10:15:39.247Z,1.57
2022-09-10T10:18:28.813Z,1.70
2022-09-10T10:21:14.350Z,1.80
2022-09-10T10:23:42.221Z,1.40
2022-09-10T10:26:30.343Z,1.50
2022-09-10T10:29:01.179Z,1.73
2022-09-10T10:31:42.776Z,1.80
2022-09-10T10:34:37.333Z,1.50
2022-09-10T10:37:09.618Z,1.67
2022-09-10T10:39:51.458Z,1.30
2022-09-10T10:42:24.259Z,1.27
2022-09-10T10:45:01.263Z,1.37
2022-09-10T10:47:37.952Z,1.00
2022-09-10T10:50:13.475Z,1.00
2022-09-10T10:52:55.236Z,1.00
2022-09-10T10:55:24.807Z,0.80
2022-09-10T10:58:06.669Z,0.80
2022-09-10T11:00:41.802Z,0.93
2022-09-10T11:03:15.977Z,0.93
2022-09-10T11:05:48.025Z,0.87
2022-09-10T11:08:19.402Z,0.90
2022-09-10T11:10:50.403Z,0.70
2022-09-10T11:13:22.779Z,0.70
2022-09-10T11:15:55.154Z,0.80
2022-09-10T11:18:27.361Z,0.80
2022-09-10T11:21:00.090Z,0.50
2022-09-10T11:23:31.429Z,0.80
2022-09-10T11:26:02.948Z,0.77
2022-09-10T11:28:32.629Z,0.73
2022-09-10T11:31:05.066Z,0.73
2022-09-10T11:33:39.401Z,0.70
2022-09-10T11:36:12.406Z,0.77
2022-09-10T11:38:48.194Z,0.60
2022-09-10T11:41:19.696Z,0.67
2022-09-10T11:43:50.985Z,0.77
2022-09-10T11:46:23.475Z,0.60
2022-09-10T11:48:55.791Z,0.67
2022-09-10T11:51:26.846Z,0.77
2022-09-10T11:53:56.431Z,0.50
2022-09-10T11:56:32.015Z,0.33
2022-09-10T11:59:11.672Z,0.57
2022-09-10T12:01:52.849Z,0.60
2022-09-10T12:04:32.956Z,0.60
2022-09-10T12:07:08.151Z,0.43
2022-09-10T12:12:10.040Z,1.00
2022-09-10T12:14:40.517Z,0.67
2022-09-10T12:17:13.253Z,0.53
2022-09-10T12:19:45.939Z,0.50
2022-09-10T12:22:20.343Z,0.50
2022-09-10T12:24:52.584Z,0.60
2022-09-10T12:27:21.581Z,0.57
2022-09-10T12:29:49.526Z,0.60
2022-09-10T12:32:37.942Z,1.00
2022-09-10T12:35:44.341Z,0.60
2022-09-10T12:38:48.982Z,0.50
2022-09-10T12:41:53.599Z,0.50
2022-09-10T12:44:55.046Z,0.70
2022-09-10T12:47:32.131Z,0.87
2022-09-10T12:50:01.639Z,0.30
2022-09-10T12:52:39.125Z,0.40
2022-09-10T12:55:14.702Z,0.23
2022-09-10T12:57:45.700Z,0.40
2022-09-10T13:00:19.411Z,0.40
2022-09-10T13:02:51.290Z,0.47
2022-09-10T13:05:24.859Z,0.50
2022-09-10T13:07:59.666Z,0.40
2022-09-10T13:10:29.724Z,0.70
2022-09-10T13:13:04.944Z,0.27
2022-09-10T13:15:36.519Z,0.63
2022-09-10T13:18:24.371Z,0.50
2022-09-10T13:20:51.942Z,0.50
2022-09-10T13:23:24.316Z,0.23
2022-09-10T13:25:52.798Z,0.50
2022-09-10T13:28:58.687Z,0.50
2022-09-10T13:31:28.899Z,0.60
2022-09-10T13:34:10.872Z,0.63
2022-09-10T13:36:48.022Z,0.50
2022-09-10T13:39:46.172Z,0.50
2022-09-10T13:42:35.958Z,0.50
2022-09-10T13:45:23.421Z,0.20
2022-09-10T13:48:01.036Z,0.50
2022-09-10T13:50:33.270Z,0.40
2022-09-10T13:53:01.492Z,0.40
2022-09-10T13:55:30.513Z,0.60
2022-09-10T13:58:00.363Z,0.60
2022-09-10T14:00:30.438Z,0.77
2022-09-10T14:03:00.484Z,0.60
2022-09-10T14:05:34.035Z,0.50
2022-09-10T14:10:29.820Z,0.80
2022-09-10T14:12:58.067Z,0.87
2022-09-10T14:15:39.239Z,0.50
2022-09-10T14:18:11.927Z,0.63
2022-09-10T14:20:40.663Z,0.50
2022-09-10T14:23:14.166Z,0.27
2022-09-10T14:25:43.700Z,0.40
2022-09-10T14:28:24.446Z,0.63
2022-09-10T14:30:53.130Z,0.60
2022-09-10T14:33:25.243Z,0.60
2022-09-10T14:35:53.244Z,0.57
2022-09-10T14:38:25.996Z,0.73
2022-09-10T14:40:58.735Z,0.70
2022-09-10T14:43:29.529Z,0.53
2022-09-10T14:45:57.450Z,0.70
2022-09-10T14:48:33.433Z,0.80
2022-09-10T14:51:19.130Z,0.90
2022-09-10T14:53:50.834Z,0.70
2022-09-10T14:56:25.293Z,0.60
2022-09-10T14:59:00.584Z,0.87
2022-09-10T15:01:28.626Z,0.80
2022-09-10T15:03:57.662Z,0.90
2022-09-10T15:06:26.855Z,1.10
2022-09-10T15:08:55.910Z,1.03
2022-09-10T15:11:26.070Z,1.10
2022-09-10T15:13:55.752Z,0.90
2022-09-10T15:16:23.968Z,0.80
2022-09-10T15:18:51.644Z,1.00
2022-09-10T15:21:20.782Z,0.80
2022-09-10T15:23:48.855Z,0.80
2022-09-10T15:26:16.708Z,0.90
2022-09-10T15:28:44.228Z,0.93
2022-09-10T15:31:11.875Z,1.00
2022-09-10T15:33:40.114Z,0.97
2022-09-10T15:36:08.777Z,0.90
2022-09-10T15:38:37.705Z,1.07
2022-09-10T15:41:09.537Z,1.20
2022-09-10T15:43:39.678Z,1.20
2022-09-10T15:46:07.738Z,1.10
2022-09-10T15:48:35.899Z,0.90
2022-09-10T15:51:04.742Z,1.10
2022-09-10T15:53:33.543Z,1.20
2022-09-10T15:56:04.065Z,1.30
2022-09-10T15:58:32.232Z,1.40
2022-09-10T16:01:03.944Z,1.03
2022-09-10T16:03:32.182Z,1.23
2022-09-10T16:06:03.434Z,1.37
2022-09-10T16:08:31.687Z,1.07
2022-09-10T16:10:59.673Z,1.20
2022-09-10T16:13:28.668Z,1.03
2022-09-10T16:16:00.810Z,1.13
2022-09-10T16:18:29.303Z,1.00
2022-09-10T16:20:56.952Z,1.40
2022-09-10T16:23:24.469Z,1.20
2022-09-10T16:25:53.175Z,1.00
2022-09-10T16:28:20.778Z,1.33
2022-09-10T16:30:49.907Z,1.33
2022-09-10T16:33:17.493Z,1.20
2022-09-10T16:35:45.653Z,1.17
2022-09-10T16:38:13.180Z,1.60
2022-09-10T16:40:42.254Z,1.40
2022-09-10T16:43:09.875Z,1.20
2022-09-10T16:45:37.443Z,1.20
2022-09-10T16:48:07.286Z,1.30
2022-09-10T16:50:35.080Z,1.20
2022-09-10T16:53:02.626Z,1.40
2022-09-10T16:55:30.934Z,1.40
2022-09-10T16:57:58.509Z,1.30
2022-09-10T17:00:27.011Z,1.40
2022-09-10T17:02:54.586Z,1.23
2022-09-10T17:05:23.615Z,1.63
2022-09-10T17:07:51.658Z,1.40
2022-09-10T17:10:20.581Z,1.57
2022-09-10T17:12:48.155Z,1.60
2022-09-10T17:15:15.795Z,1.73
2022-09-10T17:17:43.446Z,1.70
2022-09-10T17:20:11.304Z,1.90
2022-09-10T17:22:40.292Z,2.17
2022-09-10T17:25:08.616Z,2.00
2022-09-10T17:27:36.268Z,2.30
2022-09-10T17:30:04.055Z,2.00
2022-09-10T17:32:31.625Z,2.17
2022-09-10T17:34:59.387Z,1.90
2022-09-10T17:37:27.421Z,1.80
2022-09-10T17:39:56.372Z,1.90
2022-09-10T17:42:23.942Z,2.20
2022-09-10T17:44:51.463Z,2.03
2022-09-10T17:47:19.002Z,2.40
2022-09-10T17:49:46.989Z,2.30
2022-09-10T17:52:14.858Z,2.17
2022-09-10T17:54:42.857Z,2.57
2022-09-10T17:57:11.737Z,2.37
2022-09-10T17:59:39.363Z,2.20
2022-09-10T18:02:07.882Z,1.97
2022-09-10T18:04:35.467Z,2.37
2022-09-10T18:07:03.019Z,2.57
2022-09-10T18:09:30.676Z,2.30
2022-09-10T18:11:58.251Z,2.53
2022-09-10T18:14:28.057Z,1.80
2022-09-10T18:16:57.778Z,2.00
2022-09-10T18:19:26.077Z,2.30
2022-09-10T18:21:53.648Z,2.30
2022-09-10T18:24:23.991Z,2.03
2022-09-10T18:26:53.772Z,1.90
2022-09-10T18:29:23.476Z,1.90
2022-09-10T18:31:53.549Z,1.70
2022-09-10T18:34:24.062Z,1.77
2022-09-10T18:36:54.269Z,1.83
2022-09-10T18:39:23.888Z,1.97
2022-09-10T18:41:56.990Z,1.90
2022-09-10T18:44:27.780Z,2.17
2022-09-10T18:47:03.069Z,1.77
2022-09-10T18:49:31.238Z,2.57
2022-09-10T18:51:59.165Z,2.57
2022-09-10T18:54:28.618Z,2.50
2022-09-10T18:56:57.233Z,2.33
2022-09-10T18:59:25.701Z,2.50
2022-09-10T19:01:55.736Z,2.40
2022-09-10T19:04:27.278Z,2.77
2022-09-10T19:06:55.409Z,2.50
2022-09-10T19:09:24.588Z,2.40
2022-09-10T19:11:53.906Z,2.43
2022-09-10T19:14:22.875Z,2.10
2022-09-10T19:16:51.656Z,2.43
2022-09-10T19:19:20.907Z,2.10
2022-09-10T19:21:52.261Z,2.40
2022-09-10T19:24:32.916Z,2.57
2022-09-10T19:27:08.866Z,2.50
2022-09-10T19:29:36.563Z,2.40
2022-09-10T19:32:04.484Z,2.33
2022-09-10T19:34:32.150Z,2.60
2022-09-10T19:37:01.736Z,2.60
2022-09-10T19:39:29.408Z,2.40
2022-09-10T19:41:57.086Z,2.00
2022-09-10T19:44:24.700Z,2.10
2022-09-10T19:46:52.276Z,2.47
2022-09-10T19:49:19.835Z,2.40
2022-09-10T19:51:47.432Z,2.23
2022-09-10T19:54:16.433Z,2.30
2022-09-10T19:56:44.418Z,2.10
2022-09-10T19:59:12.799Z,2.13
2022-09-10T20:01:41.775Z,2.37
2022-09-10T20:04:11.321Z,2.07
2022-09-10T20:06:39.351Z,2.20
2022-09-10T20:09:08.574Z,2.00
2022-09-10T20:11:38.287Z,2.00
2022-09-10T20:14:09.337Z,2.20
2022-09-10T20:16:37.721Z,1.57
2022-09-10T20:19:05.857Z,1.70
2022-09-10T20:21:33.512Z,2.00
2022-09-10T20:24:01.105Z,1.43
2022-09-10T20:26:30.360Z,1.60
2022-09-10T20:29:00.955Z,1.60
2022-09-10T20:31:31.183Z,1.77
2022-09-10T20:34:00.377Z,1.37
2022-09-10T20:36:28.834Z,1.30
2022-09-10T20:38:56.999Z,1.40
2022-09-10T20:41:29.903Z,1.60
2022-09-10T20:43:59.913Z,1.23
2022-09-10T20:46:28.834Z,1.30
2022-09-10T20:49:02.613Z,1.20
2022-09-10T20:51:30.684Z,1.40
2022-09-10T20:53:58.308Z,1.40
2022-09-10T20:56:25.909Z,1.20
2022-09-10T20:58:53.490Z,1.30
2022-09-10T21:01:23.828Z,1.23
2022-09-10T21:03:53.445Z,1.20
2022-09-10T21:06:24.155Z,1.30
2022-09-10T21:08:52.583Z,1.50
2022-09-10T21:11:22.275Z,1.40
2022-09-10T21:13:50.939Z,1.43
2022-09-10T21:16:20.185Z,1.20
2022-09-10T21:18:54.325Z,1.27
2022-09-10T21:21:26.944Z,1.50
2022-09-10T21:23:56.165Z,1.50
2022-09-10T21:26:26.111Z,1.47
2022-09-10T21:28:55.904Z,1.50
2022-09-10T21:31:23.925Z,1.43
2022-09-10T21:33:52.985Z,1.40
2022-09-10T21:36:21.481Z,1.70
2022-09-10T21:38:49.630Z,1.17
2022-09-10T21:41:19.024Z,1.57
2022-09-10T21:43:51.371Z,1.60
2022-09-10T21:46:23.972Z,1.27
2022-09-10T21:49:02.437Z,1.30
2022-09-10T21:51:32.224Z,1.40
2022-09-10T21:54:00.537Z,1.50
2022-09-10T21:56:29.680Z,1.80
2022-09-10T21:58:57.775Z,1.57
2022-09-10T22:01:27.324Z,1.60
2022-09-10T22:03:59.496Z,1.60
2022-09-10T22:06:28.024Z,1.50
2022-09-10T22:08:58.032Z,1.40
2022-09-10T22:11:30.101Z,2.17
2022-09-10T22:14:00.984Z,1.80
2022-09-10T22:16:30.205Z,1.67
2022-09-10T22:19:00.564Z,1.50
2022-09-10T22:21:28.927Z,1.90
2022-09-10T22:23:56.640Z,1.60
2022-09-10T22:26:25.986Z,2.10
2022-09-10T22:28:54.838Z,1.93
2022-09-10T22:31:24.017Z,1.70
2022-09-10T22:33:53.886Z,2.20
2022-09-10T22:36:24.615Z,1.80
2022-09-10T22:38:53.568Z,1.83
2022-09-10T22:41:22.886Z,2.03
2022-09-10T22:43:50.817Z,1.67
2022-09-10T22:46:18.877Z,2.03
2022-09-10T22:48:47.193Z,2.40
2022-09-10T22:51:16.680Z,2.03
2022-09-10T22:53:46.389Z,1.87
2022-09-10T22:56:15.804Z,2.03
2022-09-10T22:58:43.429Z,2.10
2022-09-10T23:01:13.034Z,2.23
2022-09-10T23:03:41.109Z,2.50
2022-09-10T23:06:11.834Z,2.67
2022-09-10T23:08:40.345Z,2.30
2022-09-10T23:11:12.306Z,2.73
2022-09-10T23:13:40.016Z,2.60
2022-09-10T23:16:11.336Z,2.63
2022-09-10T23:18:39.618Z,2.67
2022-09-10T23:21:07.591Z,2.33
2022-09-10T23:23:35.515Z,2.37
2022-09-10T23:26:08.249Z,2.77
2022-09-10T23:28:37.754Z,2.47
2022-09-10T23:31:14.040Z,2.80
2022-09-10T23:33:42.616Z,2.90
2022-09-10T23:36:11.692Z,2.73
2022-09-10T23:38:39.931Z,2.60
2022-09-10T23:41:08.548Z,2.87
2022-09-10T23:43:37.572Z,2.40
2022-09-10T23:46:05.329Z,3.13
2022-09-10T23:48:32.947Z,2.87
2022-09-10T23:51:01.340Z,2.60
2022-09-10T23:53:29.246Z,3.13
2022-09-10T23:55:57.280Z,2.90
2022-09-10T23:58:25.177Z,3.13
